sensor_id;sensor_type;location;lat;lon;timestamp;pressure;altitude;pressure_sealevel;temperature;humidity
45050;BME280;61798;48.048;-1.928;2023-09-07T00:01:36;100872.13;;;22.38;100.00
45050;BME280;61798;48.048;-1.928;2023-09-07T00:03:42;100878.97;;;22.35;100.00
45050;BME280;61798;48.048;-1.928;2023-09-07T00:05:48;100879.47;;;22.27;100.00
45050;BME280;61798;48.048;-1.928;2023-09-07T00:07:53;100864.94;;;22.11;100.00
45050;BME280;61798;48.048;-1.928;2023-09-07T00:09:59;100860.31;;;22.11;100.00
45050;BME280;61798;48.048;-1.928;2023-09-07T00:12:05;100862.78;;;22.13;100.00
45050;BME280;61798;48.048;-1.928;2023-09-07T00:14:11;100849.69;;;22.15;100.00
45050;BME280;61798;48.048;-1.928;2023-09-07T00:16:17;100847.75;;;22.05;100.00
45050;BME280;61798;48.048;-1.928;2023-09-07T00:18:23;100838.63;;;21.89;100.00
45050;BME280;61798;48.048;-1.928;2023-09-07T00:20:29;100827.94;;;21.76;100.00
45050;BME280;61798;48.048;-1.928;2023-09-07T00:22:35;100855.81;;;21.89;100.00
45050;BME280;61798;48.048;-1.928;2023-09-07T00:24:41;100835.03;;;21.83;100.00
45050;BME280;61798;48.048;-1.928;2023-09-07T00:26:46;100855.81;;;21.89;100.00
45050;BME280;61798;48.048;-1.928;2023-09-07T00:28:52;100829.47;;;21.62;100.00
45050;BME280;61798;48.048;-1.928;2023-09-07T00:30:58;100845.06;;;21.72;100.00
45050;BME280;61798;48.048;-1.928;2023-09-07T00:33:04;100858.75;;;21.77;100.00
45050;BME280;61798;48.048;-1.928;2023-09-07T00:35:10;100836.84;;;21.66;100.00
45050;BME280;61798;48.048;-1.928;2023-09-07T00:37:16;100832.75;;;21.64;100.00
45050;BME280;61798;48.048;-1.928;2023-09-07T00:39:22;100835.50;;;21.64;100.00
45050;BME280;61798;48.048;-1.928;2023-09-07T00:41:28;100850.25;;;21.68;100.00
45050;BME280;61798;48.048;-1.928;2023-09-07T00:43:34;100842.84;;;21.63;100.00
45050;BME280;61798;48.048;-1.928;2023-09-07T00:45:39;100844.75;;;21.58;100.00
45050;BME280;61798;48.048;-1.928;2023-09-07T00:47:45;100847.66;;;21.51;100.00
45050;BME280;61798;48.048;-1.928;2023-09-07T00:49:51;100847.66;;;21.51;100.00
45050;BME280;61798;48.048;-1.928;2023-09-07T00:51:57;100850.44;;;21.56;100.00
45050;BME280;61798;48.048;-1.928;2023-09-07T00:54:03;100827.94;;;21.33;100.00
45050;BME280;61798;48.048;-1.928;2023-09-07T00:56:09;100850.94;;;21.48;100.00
45050;BME280;61798;48.048;-1.928;2023-09-07T00:58:15;100842.72;;;21.42;100.00
45050;BME280;61798;48.048;-1.928;2023-09-07T01:00:21;100817.47;;;21.19;100.00
45050;BME280;61798;48.048;-1.928;2023-09-07T01:02:27;100815.81;;;21.13;100.00
45050;BME280;61798;48.048;-1.928;2023-09-07T01:04:35;100838.75;;;21.22;100.00
45050;BME280;61798;48.048;-1.928;2023-09-07T01:06:45;100841.09;;;21.41;100.00
45050;BME280;61798;48.048;-1.928;2023-09-07T01:08:55;100806.91;;;21.28;100.00
45050;BME280;61798;48.048;-1.928;2023-09-07T01:11:15;100825.28;;;21.43;100.00
45050;BME280;61798;48.048;-1.928;2023-09-07T01:13:21;100825.66;;;21.58;100.00
45050;BME280;61798;48.048;-1.928;2023-09-07T01:15:27;100788.72;;;21.39;100.00
45050;BME280;61798;48.048;-1.928;2023-09-07T01:17:34;100821.63;;;21.71;100.00
45050;BME280;61798;48.048;-1.928;2023-09-07T01:19:40;100797.56;;;21.57;100.00
45050;BME280;61798;48.048;-1.928;2023-09-07T01:21:46;100780.59;;;21.44;100.00
45050;BME280;61798;48.048;-1.928;2023-09-07T01:23:53;100814.16;;;21.55;100.00
45050;BME280;61798;48.048;-1.928;2023-09-07T01:25:59;100793.06;;;21.35;100.00
45050;BME280;61798;48.048;-1.928;2023-09-07T01:28:05;100803.50;;;21.49;100.00
45050;BME280;61798;48.048;-1.928;2023-09-07T01:30:11;100795.44;;;21.26;100.00
45050;BME280;61798;48.048;-1.928;2023-09-07T01:32:19;100792.81;;;21.03;100.00
45050;BME280;61798;48.048;-1.928;2023-09-07T01:34:24;100809.78;;;21.11;100.00
45050;BME280;61798;48.048;-1.928;2023-09-07T01:36:30;100809.09;;;20.98;100.00
45050;BME280;61798;48.048;-1.928;2023-09-07T01:38:36;100809.72;;;21.06;100.00
45050;BME280;61798;48.048;-1.928;2023-09-07T01:40:42;100795.72;;;20.91;100.00
45050;BME280;61798;48.048;-1.928;2023-09-07T01:42:48;100801.16;;;20.91;100.00
45050;BME280;61798;48.048;-1.928;2023-09-07T01:44:53;100797.53;;;20.80;100.00
45050;BME280;61798;48.048;-1.928;2023-09-07T01:46:59;100788.78;;;20.78;100.00
45050;BME280;61798;48.048;-1.928;2023-09-07T01:49:05;100800.81;;;20.82;100.00
45050;BME280;61798;48.048;-1.928;2023-09-07T01:51:11;100789.53;;;20.68;100.00
45050;BME280;61798;48.048;-1.928;2023-09-07T01:53:17;100802.91;;;20.75;100.00
45050;BME280;61798;48.048;-1.928;2023-09-07T01:55:23;100799.06;;;20.71;100.00
45050;BME280;61798;48.048;-1.928;2023-09-07T01:57:29;100788.03;;;20.55;100.00
45050;BME280;61798;48.048;-1.928;2023-09-07T01:59:35;100802.78;;;20.59;100.00
45050;BME280;61798;48.048;-1.928;2023-09-07T02:01:41;100805.25;;;20.61;100.00
45050;BME280;61798;48.048;-1.928;2023-09-07T02:03:47;100782.50;;;20.45;100.00
45050;BME280;61798;48.048;-1.928;2023-09-07T02:05:53;100801.91;;;20.54;100.00
45050;BME280;61798;48.048;-1.928;2023-09-07T02:07:59;100796.16;;;20.50;100.00
45050;BME280;61798;48.048;-1.928;2023-09-07T02:10:06;100796.97;;;20.50;100.00
45050;BME280;61798;48.048;-1.928;2023-09-07T02:12:12;100779.72;;;20.39;100.00
45050;BME280;61798;48.048;-1.928;2023-09-07T02:14:18;100770.69;;;20.34;100.00
45050;BME280;61798;48.048;-1.928;2023-09-07T02:16:24;100797.75;;;20.46;100.00
45050;BME280;61798;48.048;-1.928;2023-09-07T02:18:29;100773.97;;;20.36;100.00
45050;BME280;61798;48.048;-1.928;2023-09-07T02:20:35;100793.13;;;20.46;100.00
45050;BME280;61798;48.048;-1.928;2023-09-07T02:22:41;100800.47;;;20.46;100.00
45050;BME280;61798;48.048;-1.928;2023-09-07T02:24:47;100785.56;;;20.26;100.00
45050;BME280;61798;48.048;-1.928;2023-09-07T02:26:53;100800.88;;;20.32;100.00
45050;BME280;61798;48.048;-1.928;2023-09-07T02:28:59;100813.50;;;20.44;100.00
45050;BME280;61798;48.048;-1.928;2023-09-07T02:31:06;100804.47;;;20.38;100.00
45050;BME280;61798;48.048;-1.928;2023-09-07T02:33:12;100799.97;;;20.26;100.00
45050;BME280;61798;48.048;-1.928;2023-09-07T02:35:18;100804.03;;;20.24;100.00
45050;BME280;61798;48.048;-1.928;2023-09-07T02:37:24;100783.22;;;20.12;100.00
45050;BME280;61798;48.048;-1.928;2023-09-07T02:39:30;100782.91;;;20.08;100.00
45050;BME280;61798;48.048;-1.928;2023-09-07T02:41:36;100797.94;;;20.16;100.00
45050;BME280;61798;48.048;-1.928;2023-09-07T02:43:42;100790.00;;;20.10;100.00
45050;BME280;61798;48.048;-1.928;2023-09-07T02:45:49;100799.03;;;20.15;100.00
45050;BME280;61798;48.048;-1.928;2023-09-07T02:47:55;100795.44;;;20.10;100.00
45050;BME280;61798;48.048;-1.928;2023-09-07T02:50:01;100793.09;;;20.18;100.00
45050;BME280;61798;48.048;-1.928;2023-09-07T02:52:07;100785.28;;;20.22;100.00
45050;BME280;61798;48.048;-1.928;2023-09-07T02:54:13;100794.50;;;20.21;100.00
45050;BME280;61798;48.048;-1.928;2023-09-07T02:56:19;100801.53;;;20.17;100.00
45050;BME280;61798;48.048;-1.928;2023-09-07T02:58:25;100802.50;;;20.11;100.00
45050;BME280;61798;48.048;-1.928;2023-09-07T03:00:30;100789.59;;;20.01;100.00
45050;BME280;61798;48.048;-1.928;2023-09-07T03:02:37;100796.19;;;20.05;100.00
45050;BME280;61798;48.048;-1.928;2023-09-07T03:04:42;100802.78;;;20.09;100.00
45050;BME280;61798;48.048;-1.928;2023-09-07T03:06:48;100794.53;;;20.04;100.00
45050;BME280;61798;48.048;-1.928;2023-09-07T03:08:54;100802.78;;;20.09;100.00
45050;BME280;61798;48.048;-1.928;2023-09-07T03:11:04;100805.41;;;20.04;100.00
45050;BME280;61798;48.048;-1.928;2023-09-07T03:13:11;100786.47;;;19.86;100.00
45050;BME280;61798;48.048;-1.928;2023-09-07T03:15:16;100781.50;;;19.83;100.00
45050;BME280;61798;48.048;-1.928;2023-09-07T03:17:23;100790.81;;;19.87;100.00
45050;BME280;61798;48.048;-1.928;2023-09-07T03:19:29;100792.47;;;19.89;100.00
45050;BME280;61798;48.048;-1.928;2023-09-07T03:21:35;100798.00;;;19.99;100.00
45050;BME280;61798;48.048;-1.928;2023-09-07T03:23:41;100783.16;;;19.84;100.00
45050;BME280;61798;48.048;-1.928;2023-09-07T03:25:49;100777.91;;;19.78;100.00
45050;BME280;61798;48.048;-1.928;2023-09-07T03:27:55;100775.69;;;19.74;100.00
45050;BME280;61798;48.048;-1.928;2023-09-07T03:30:02;100777.53;;;19.69;100.00
45050;BME280;61798;48.048;-1.928;2023-09-07T03:32:09;100788.19;;;19.75;100.00
45050;BME280;61798;48.048;-1.928;2023-09-07T03:34:15;100786.06;;;19.78;100.00
45050;BME280;61798;48.048;-1.928;2023-09-07T03:36:21;100786.56;;;19.74;100.00
45050;BME280;61798;48.048;-1.928;2023-09-07T03:38:27;100776.88;;;19.61;100.00
45050;BME280;61798;48.048;-1.928;2023-09-07T03:40:33;100777.75;;;19.67;100.00
45050;BME280;61798;48.048;-1.928;2023-09-07T03:42:39;100783.78;;;19.69;100.00
45050;BME280;61798;48.048;-1.928;2023-09-07T03:44:45;100779.34;;;19.63;100.00
45050;BME280;61798;48.048;-1.928;2023-09-07T03:46:51;100792.44;;;19.66;100.00
45050;BME280;61798;48.048;-1.928;2023-09-07T03:48:56;100777.31;;;19.75;100.00
45050;BME280;61798;48.048;-1.928;2023-09-07T03:51:06;100791.63;;;19.88;100.00
45050;BME280;61798;48.048;-1.928;2023-09-07T03:53:12;100782.53;;;19.77;100.00
45050;BME280;61798;48.048;-1.928;2023-09-07T03:55:18;100799.59;;;19.72;100.00
45050;BME280;61798;48.048;-1.928;2023-09-07T03:57:25;100806.88;;;19.67;100.00
45050;BME280;61798;48.048;-1.928;2023-09-07T03:59:31;100807.84;;;19.60;100.00
45050;BME280;61798;48.048;-1.928;2023-09-07T04:01:37;100792.78;;;19.92;100.00
45050;BME280;61798;48.048;-1.928;2023-09-07T04:03:43;100781.25;;;20.07;100.00
45050;BME280;61798;48.048;-1.928;2023-09-07T04:05:50;100773.28;;;20.01;100.00
45050;BME280;61798;48.048;-1.928;2023-09-07T04:07:56;100786.13;;;19.83;100.00
45050;BME280;61798;48.048;-1.928;2023-09-07T04:10:02;100769.88;;;19.65;100.00
45050;BME280;61798;48.048;-1.928;2023-09-07T04:12:09;100788.16;;;19.70;100.00
45050;BME280;61798;48.048;-1.928;2023-09-07T04:14:15;100778.69;;;19.55;100.00
45050;BME280;61798;48.048;-1.928;2023-09-07T04:16:21;100788.59;;;19.44;100.00
45050;BME280;61798;48.048;-1.928;2023-09-07T04:18:26;100801.03;;;19.58;100.00
45050;BME280;61798;48.048;-1.928;2023-09-07T04:20:32;100807.22;;;19.53;100.00
45050;BME280;61798;48.048;-1.928;2023-09-07T04:22:41;100806.38;;;19.52;100.00
45050;BME280;61798;48.048;-1.928;2023-09-07T04:24:47;100775.63;;;19.29;100.00
45050;BME280;61798;48.048;-1.928;2023-09-07T04:26:58;100782.94;;;19.29;100.00
45050;BME280;61798;48.048;-1.928;2023-09-07T04:29:07;100808.53;;;19.50;100.00
45050;BME280;61798;48.048;-1.928;2023-09-07T04:31:13;100804.34;;;19.42;100.00
45050;BME280;61798;48.048;-1.928;2023-09-07T04:33:18;100790.28;;;19.28;100.00
45050;BME280;61798;48.048;-1.928;2023-09-07T04:35:30;100805.00;;;19.32;100.00
45050;BME280;61798;48.048;-1.928;2023-09-07T04:37:37;100775.91;;;19.16;100.00
45050;BME280;61798;48.048;-1.928;2023-09-07T04:39:43;100772.66;;;19.13;100.00
45050;BME280;61798;48.048;-1.928;2023-09-07T04:41:49;100795.69;;;19.28;100.00
45050;BME280;61798;48.048;-1.928;2023-09-07T04:43:54;100799.34;;;19.34;100.00
45050;BME280;61798;48.048;-1.928;2023-09-07T04:46:00;100797.34;;;19.29;100.00
45050;BME280;61798;48.048;-1.928;2023-09-07T04:48:07;100774.78;;;19.11;100.00
45050;BME280;61798;48.048;-1.928;2023-09-07T04:50:12;100791.16;;;19.17;100.00
45050;BME280;61798;48.048;-1.928;2023-09-07T04:52:19;100776.75;;;19.16;100.00
45050;BME280;61798;48.048;-1.928;2023-09-07T04:54:25;100791.75;;;19.19;100.00
45050;BME280;61798;48.048;-1.928;2023-09-07T04:56:33;100784.81;;;19.11;100.00
45050;BME280;61798;48.048;-1.928;2023-09-07T04:58:39;100772.91;;;18.95;100.00
45050;BME280;61798;48.048;-1.928;2023-09-07T05:00:45;100789.91;;;19.07;100.00
45050;BME280;61798;48.048;-1.928;2023-09-07T05:02:51;100777.50;;;18.94;100.00
45050;BME280;61798;48.048;-1.928;2023-09-07T05:04:57;100802.44;;;19.08;100.00
45050;BME280;61798;48.048;-1.928;2023-09-07T05:07:03;100805.06;;;19.03;100.00
45050;BME280;61798;48.048;-1.928;2023-09-07T05:09:09;100792.31;;;18.86;100.00
45050;BME280;61798;48.048;-1.928;2023-09-07T05:11:14;100804.22;;;18.85;100.00
45050;BME280;61798;48.048;-1.928;2023-09-07T05:13:20;100788.34;;;18.77;100.00
45050;BME280;61798;48.048;-1.928;2023-09-07T05:15:26;100789.41;;;18.76;100.00
45050;BME280;61798;48.048;-1.928;2023-09-07T05:17:32;100789.41;;;18.76;100.00
45050;BME280;61798;48.048;-1.928;2023-09-07T05:19:38;100788.94;;;18.79;100.00
45050;BME280;61798;48.048;-1.928;2023-09-07T05:21:44;100807.88;;;19.08;100.00
45050;BME280;61798;48.048;-1.928;2023-09-07T05:23:50;100797.81;;;19.09;100.00
45050;BME280;61798;48.048;-1.928;2023-09-07T05:25:56;100770.91;;;18.90;100.00
45050;BME280;61798;48.048;-1.928;2023-09-07T05:28:02;100801.28;;;19.04;100.00
45050;BME280;61798;48.048;-1.928;2023-09-07T05:30:08;100812.72;;;19.06;100.00
45050;BME280;61798;48.048;-1.928;2023-09-07T05:32:14;100815.91;;;19.03;100.00
45050;BME280;61798;48.048;-1.928;2023-09-07T05:34:19;100794.53;;;18.89;100.00
45050;BME280;61798;48.048;-1.928;2023-09-07T05:36:26;100807.72;;;18.98;100.00
45050;BME280;61798;48.048;-1.928;2023-09-07T05:38:32;100808.69;;;19.09;100.00
45050;BME280;61798;48.048;-1.928;2023-09-07T05:40:43;100793.72;;;19.06;100.00
45050;BME280;61798;48.048;-1.928;2023-09-07T05:42:49;100826.91;;;19.26;100.00
45050;BME280;61798;48.048;-1.928;2023-09-07T05:44:55;100795.53;;;19.18;100.00
45050;BME280;61798;48.048;-1.928;2023-09-07T05:47:01;100816.94;;;19.31;100.00
45050;BME280;61798;48.048;-1.928;2023-09-07T05:49:07;100817.25;;;19.35;100.00
45050;BME280;61798;48.048;-1.928;2023-09-07T05:51:13;100795.00;;;19.55;100.00
45050;BME280;61798;48.048;-1.928;2023-09-07T05:53:19;100788.94;;;19.13;100.00
45050;BME280;61798;48.048;-1.928;2023-09-07T05:55:30;100815.94;;;19.20;100.00
45050;BME280;61798;48.048;-1.928;2023-09-07T05:57:36;100806.81;;;19.09;100.00
45050;BME280;61798;48.048;-1.928;2023-09-07T05:59:42;100769.75;;;18.86;100.00
45050;BME280;61798;48.048;-1.928;2023-09-07T06:01:48;100778.75;;;18.86;100.00
45050;BME280;61798;48.048;-1.928;2023-09-07T06:03:54;100788.94;;;18.96;100.00
45050;BME280;61798;48.048;-1.928;2023-09-07T06:06:00;100809.84;;;19.13;100.00
45050;BME280;61798;48.048;-1.928;2023-09-07T06:08:06;100822.69;;;19.18;100.00
45050;BME280;61798;48.048;-1.928;2023-09-07T06:10:12;100821.38;;;19.20;100.00
45050;BME280;61798;48.048;-1.928;2023-09-07T06:12:18;100825.84;;;19.27;100.00
45050;BME280;61798;48.048;-1.928;2023-09-07T06:14:25;100817.59;;;19.21;100.00
45050;BME280;61798;48.048;-1.928;2023-09-07T06:16:31;100833.31;;;19.37;100.00
45050;BME280;61798;48.048;-1.928;2023-09-07T06:18:37;100822.38;;;19.31;100.00
45050;BME280;61798;48.048;-1.928;2023-09-07T06:20:42;100817.03;;;19.37;100.00
45050;BME280;61798;48.048;-1.928;2023-09-07T06:22:48;100833.75;;;19.46;100.00
45050;BME280;61798;48.048;-1.928;2023-09-07T06:24:55;100837.94;;;19.53;100.00
45050;BME280;61798;48.048;-1.928;2023-09-07T06:27:00;100815.88;;;19.50;100.00
45050;BME280;61798;48.048;-1.928;2023-09-07T06:29:06;100826.63;;;19.62;100.00
45050;BME280;61798;48.048;-1.928;2023-09-07T06:31:12;100847.28;;;19.80;100.00
45050;BME280;61798;48.048;-1.928;2023-09-07T06:33:18;100825.47;;;19.97;100.00
45050;BME280;61798;48.048;-1.928;2023-09-07T06:35:24;100831.03;;;20.08;100.00
45050;BME280;61798;48.048;-1.928;2023-09-07T06:37:30;100809.28;;;19.85;100.00
45050;BME280;61798;48.048;-1.928;2023-09-07T06:39:36;100833.13;;;20.01;100.00
45050;BME280;61798;48.048;-1.928;2023-09-07T06:41:45;100811.25;;;19.90;100.00
45050;BME280;61798;48.048;-1.928;2023-09-07T06:43:51;100808.84;;;19.94;100.00
45050;BME280;61798;48.048;-1.928;2023-09-07T06:46:05;100839.28;;;20.13;100.00
45050;BME280;61798;48.048;-1.928;2023-09-07T06:48:12;100836.03;;;20.16;100.00
45050;BME280;61798;48.048;-1.928;2023-09-07T06:50:19;100827.97;;;20.22;100.00
45050;BME280;61798;48.048;-1.928;2023-09-07T06:52:25;100814.09;;;20.01;100.00
45050;BME280;61798;48.048;-1.928;2023-09-07T06:54:31;100830.34;;;20.41;100.00
45050;BME280;61798;48.048;-1.928;2023-09-07T06:56:37;100812.38;;;20.39;100.00
45050;BME280;61798;48.048;-1.928;2023-09-07T06:58:43;100807.09;;;20.55;100.00
45050;BME280;61798;48.048;-1.928;2023-09-07T07:00:48;100817.78;;;20.62;100.00
45050;BME280;61798;48.048;-1.928;2023-09-07T07:02:54;100832.88;;;20.75;100.00
45050;BME280;61798;48.048;-1.928;2023-09-07T07:05:01;100826.88;;;20.73;100.00
45050;BME280;61798;48.048;-1.928;2023-09-07T07:07:08;100843.81;;;20.80;100.00
45050;BME280;61798;48.048;-1.928;2023-09-07T07:09:14;100832.25;;;20.96;100.00
45050;BME280;61798;48.048;-1.928;2023-09-07T07:11:20;100834.44;;;20.99;100.00
45050;BME280;61798;48.048;-1.928;2023-09-07T07:13:25;100815.69;;;21.02;100.00
45050;BME280;61798;48.048;-1.928;2023-09-07T07:15:31;100812.31;;;21.23;100.00
45050;BME280;61798;48.048;-1.928;2023-09-07T07:17:37;100824.03;;;21.23;100.00
45050;BME280;61798;48.048;-1.928;2023-09-07T07:19:43;100821.56;;;21.22;100.00
45050;BME280;61798;48.048;-1.928;2023-09-07T07:21:49;100812.03;;;21.19;100.00
45050;BME280;61798;48.048;-1.928;2023-09-07T07:23:55;100818.91;;;21.27;100.00
45050;BME280;61798;48.048;-1.928;2023-09-07T07:26:01;100824.16;;;21.39;100.00
45050;BME280;61798;48.048;-1.928;2023-09-07T07:28:07;100806.13;;;21.33;100.00
45050;BME280;61798;48.048;-1.928;2023-09-07T07:30:14;100807.31;;;21.48;100.00
45050;BME280;61798;48.048;-1.928;2023-09-07T07:32:19;100821.63;;;21.71;100.00
45050;BME280;61798;48.048;-1.928;2023-09-07T07:34:25;100812.31;;;21.61;100.00
45050;BME280;61798;48.048;-1.928;2023-09-07T07:36:31;100814.53;;;21.75;100.00
45050;BME280;61798;48.048;-1.928;2023-09-07T07:38:37;100817.88;;;21.87;100.00
45050;BME280;61798;48.048;-1.928;2023-09-07T07:40:43;100819.88;;;21.97;100.00
45050;BME280;61798;48.048;-1.928;2023-09-07T07:42:51;100797.97;;;21.87;100.00
45050;BME280;61798;48.048;-1.928;2023-09-07T07:44:57;100808.66;;;21.94;100.00
45050;BME280;61798;48.048;-1.928;2023-09-07T07:47:03;100810.38;;;22.05;100.00
45050;BME280;61798;48.048;-1.928;2023-09-07T07:49:09;100807.38;;;22.17;100.00
45050;BME280;61798;48.048;-1.928;2023-09-07T07:51:15;100789.88;;;22.03;100.00
45050;BME280;61798;48.048;-1.928;2023-09-07T07:53:21;100808.78;;;22.31;100.00
45050;BME280;61798;48.048;-1.928;2023-09-07T07:55:27;100783.63;;;22.18;100.00
45050;BME280;61798;48.048;-1.928;2023-09-07T07:57:33;100800.09;;;22.44;100.00
45050;BME280;61798;48.048;-1.928;2023-09-07T07:59:38;100783.44;;;22.51;100.00
45050;BME280;61798;48.048;-1.928;2023-09-07T08:01:44;100762.44;;;22.57;100.00
45050;BME280;61798;48.048;-1.928;2023-09-07T08:03:50;100794.97;;;22.79;100.00
45050;BME280;61798;48.048;-1.928;2023-09-07T08:05:57;100794.16;;;22.84;100.00
45050;BME280;61798;48.048;-1.928;2023-09-07T08:08:03;100788.41;;;22.86;100.00
45050;BME280;61798;48.048;-1.928;2023-09-07T08:10:09;100804.00;;;23.01;100.00
45050;BME280;61798;48.048;-1.928;2023-09-07T08:12:15;100789.25;;;22.97;100.00
45050;BME280;61798;48.048;-1.928;2023-09-07T08:14:21;100791.69;;;23.09;100.00
45050;BME280;61798;48.048;-1.928;2023-09-07T08:16:27;100778.00;;;23.24;100.00
45050;BME280;61798;48.048;-1.928;2023-09-07T08:18:34;100775.50;;;23.33;100.00
45050;BME280;61798;48.048;-1.928;2023-09-07T08:20:39;100781.78;;;23.39;100.00
45050;BME280;61798;48.048;-1.928;2023-09-07T08:22:47;100795.69;;;23.64;100.00
45050;BME280;61798;48.048;-1.928;2023-09-07T08:24:53;100791.78;;;23.86;100.00
45050;BME280;61798;48.048;-1.928;2023-09-07T08:26:59;100784.13;;;23.88;100.00
45050;BME280;61798;48.048;-1.928;2023-09-07T08:29:06;100793.41;;;23.92;100.00
45050;BME280;61798;48.048;-1.928;2023-09-07T08:31:13;100791.06;;;24.21;100.00
45050;BME280;61798;48.048;-1.928;2023-09-07T08:33:26;100774.91;;;24.24;100.00
45050;BME280;61798;48.048;-1.928;2023-09-07T08:35:35;100764.75;;;24.25;100.00
45050;BME280;61798;48.048;-1.928;2023-09-07T08:37:43;100795.16;;;24.69;100.00
45050;BME280;61798;48.048;-1.928;2023-09-07T08:39:49;100790.91;;;24.52;100.00
45050;BME280;61798;48.048;-1.928;2023-09-07T08:41:56;100772.09;;;24.75;100.00
45050;BME280;61798;48.048;-1.928;2023-09-07T08:44:04;100761.78;;;24.61;100.00
45050;BME280;61798;48.048;-1.928;2023-09-07T08:46:18;100786.72;;;24.95;100.00
45050;BME280;61798;48.048;-1.928;2023-09-07T08:48:25;100770.44;;;24.79;100.00
45050;BME280;61798;48.048;-1.928;2023-09-07T08:50:31;100795.94;;;25.04;100.00
45050;BME280;61798;48.048;-1.928;2023-09-07T08:52:37;100772.72;;;24.97;100.00
45050;BME280;61798;48.048;-1.928;2023-09-07T08:54:45;100781.13;;;25.11;100.00
45050;BME280;61798;48.048;-1.928;2023-09-07T08:56:52;100782.97;;;25.45;100.00
45050;BME280;61798;48.048;-1.928;2023-09-07T08:58:58;100776.44;;;25.41;100.00
45050;BME280;61798;48.048;-1.928;2023-09-07T09:01:05;100774.28;;;25.38;100.00
45050;BME280;61798;48.048;-1.928;2023-09-07T09:03:11;100762.34;;;25.73;100.00
45050;BME280;61798;48.048;-1.928;2023-09-07T09:05:19;100758.53;;;25.93;100.00
45050;BME280;61798;48.048;-1.928;2023-09-07T09:07:25;100740.75;;;25.91;100.00
45050;BME280;61798;48.048;-1.928;2023-09-07T09:09:31;100762.94;;;26.14;100.00
45050;BME280;61798;48.048;-1.928;2023-09-07T09:11:37;100759.75;;;26.06;100.00
45050;BME280;61798;48.048;-1.928;2023-09-07T09:13:44;100775.69;;;26.04;100.00
45050;BME280;61798;48.048;-1.928;2023-09-07T09:15:50;100769.16;;;26.00;100.00
45050;BME280;61798;48.048;-1.928;2023-09-07T09:17:56;100774.06;;;26.03;100.00
45050;BME280;61798;48.048;-1.928;2023-09-07T09:20:02;100761.28;;;25.93;100.00
45050;BME280;61798;48.048;-1.928;2023-09-07T09:22:11;100777.91;;;26.41;100.00
45050;BME280;61798;48.048;-1.928;2023-09-07T09:24:17;100777.97;;;26.36;100.00
45050;BME280;61798;48.048;-1.928;2023-09-07T09:26:24;100757.81;;;26.07;100.00
45050;BME280;61798;48.048;-1.928;2023-09-07T09:28:33;100770.94;;;26.29;100.00
45050;BME280;61798;48.048;-1.928;2023-09-07T09:30:41;100757.72;;;26.32;100.00
45050;BME280;61798;48.048;-1.928;2023-09-07T09:32:48;100777.91;;;26.41;100.00
45050;BME280;61798;48.048;-1.928;2023-09-07T09:34:54;100771.13;;;26.72;100.00
45050;BME280;61798;48.048;-1.928;2023-09-07T09:37:01;100780.31;;;26.81;100.00
45050;BME280;61798;48.048;-1.928;2023-09-07T09:39:09;100766.91;;;26.94;100.00
45050;BME280;61798;48.048;-1.928;2023-09-07T09:41:19;100774.34;;;26.93;100.00
45050;BME280;61798;48.048;-1.928;2023-09-07T09:43:26;100769.22;;;27.20;100.00
45050;BME280;61798;48.048;-1.928;2023-09-07T09:45:33;100752.91;;;27.24;100.00
45050;BME280;61798;48.048;-1.928;2023-09-07T09:47:41;100779.69;;;27.18;100.00
45050;BME280;61798;48.048;-1.928;2023-09-07T09:49:49;100776.88;;;27.38;100.00
45050;BME280;61798;48.048;-1.928;2023-09-07T09:51:55;100773.81;;;27.39;100.00
45050;BME280;61798;48.048;-1.928;2023-09-07T09:54:04;100782.47;;;27.61;100.00
45050;BME280;61798;48.048;-1.928;2023-09-07T09:56:11;100778.38;;;27.72;100.00
45050;BME280;61798;48.048;-1.928;2023-09-07T09:58:17;100769.53;;;27.47;100.00
45050;BME280;61798;48.048;-1.928;2023-09-07T10:00:23;100754.16;;;27.46;100.00
45050;BME280;61798;48.048;-1.928;2023-09-07T10:02:36;100757.81;;;27.41;100.00
45050;BME280;61798;48.048;-1.928;2023-09-07T10:04:43;100744.16;;;27.50;100.00
45050;BME280;61798;48.048;-1.928;2023-09-07T10:06:54;100740.56;;;27.64;100.00
45050;BME280;61798;48.048;-1.928;2023-09-07T10:09:05;100757.16;;;28.01;100.00
45050;BME280;61798;48.048;-1.928;2023-09-07T10:11:12;100741.25;;;27.98;100.00
45050;BME280;61798;48.048;-1.928;2023-09-07T10:13:29;100730.56;;;28.19;100.00
45050;BME280;61798;48.048;-1.928;2023-09-07T10:15:35;100729.50;;;28.29;100.00
45050;BME280;61798;48.048;-1.928;2023-09-07T10:17:41;100729.94;;;28.46;100.00
45050;BME280;61798;48.048;-1.928;2023-09-07T10:19:47;100743.91;;;28.49;100.00
45050;BME280;61798;48.048;-1.928;2023-09-07T10:21:57;100732.75;;;28.32;100.00
45050;BME280;61798;48.048;-1.928;2023-09-07T10:24:03;100722.38;;;28.28;100.00
45050;BME280;61798;48.048;-1.928;2023-09-07T10:26:15;100731.88;;;28.45;100.00
45050;BME280;61798;48.048;-1.928;2023-09-07T10:28:23;100715.75;;;28.53;100.00
45050;BME280;61798;48.048;-1.928;2023-09-07T10:30:30;100719.00;;;28.55;100.00
45050;BME280;61798;48.048;-1.928;2023-09-07T10:32:39;100714.88;;;28.66;100.00
45050;BME280;61798;48.048;-1.928;2023-09-07T10:34:46;100730.41;;;28.94;100.00
45050;BME280;61798;48.048;-1.928;2023-09-07T10:36:56;100705.22;;;28.87;100.00
45050;BME280;61798;48.048;-1.928;2023-09-07T10:39:02;100687.88;;;29.36;100.00
45050;BME280;61798;48.048;-1.928;2023-09-07T10:41:09;100709.38;;;29.16;100.00
45050;BME280;61798;48.048;-1.928;2023-09-07T10:43:15;100688.41;;;29.56;100.00
45050;BME280;61798;48.048;-1.928;2023-09-07T10:45:21;100684.69;;;29.70;100.00